Time;durP1;ratioP1;P1;durP2;ratioP2;P2;SDS_P1;SDS_P2;PMS_P1;PMS_P2;Temp;Humidity;BMP_temperature;BMP_pressure;BME280_temperature;BME280_humidity;BME280_pressure;Samples;Min_cycle;Max_cycle;Signal;HPM_P1;HPM_P2
2023/02/17 00:01:24;;;;;;;16.23;7.18;;;10.10;99.90;;;;;;4970016;28;20038;-73
2023/02/17 00:03:50;;;;;;;;;;;10.10;99.90;;;;;;4972726;28;20077;-72
2023/02/17 00:06:18;;;;;;;19.05;6.43;;;10.10;99.90;;;;;;4972280;28;20037;-72
2023/02/17 00:08:44;;;;;;;12.85;6.38;;;10.10;99.90;;;;;;4973294;28;20027;-73
2023/02/17 00:11:09;;;;;;;14.00;7.05;;;10.10;99.90;;;;;;4977886;28;20050;-72
2023/02/17 00:13:35;;;;;;;14.40;6.22;;;10.10;99.90;;;;;;4972652;28;20035;-72
2023/02/17 00:16:14;;;;;;;11.73;6.70;;;10.10;99.90;;;;;;4983107;28;20058;-72
2023/02/17 00:18:40;;;;;;;15.05;5.85;;;10.10;99.90;;;;;;4982093;28;20057;-73
2023/02/17 00:21:17;;;;;;;12.82;6.45;;;10.10;99.90;;;;;;4985476;28;20038;-73
2023/02/17 00:23:44;;;;;;;22.30;6.85;;;10.10;99.90;;;;;;4972359;28;20515;-71
2023/02/17 00:26:10;;;;;;;15.38;6.88;;;10.10;99.90;;;;;;4970586;28;20121;-72
2023/02/17 00:28:36;;;;;;;15.32;7.95;;;10.10;99.90;;;;;;4983968;28;20113;-71
2023/02/17 00:31:09;;;;;;;19.02;7.78;;;10.10;99.90;;;;;;4975021;28;20117;-71
2023/02/17 00:33:36;;;;;;;17.63;7.10;;;10.10;99.90;;;;;;4971966;28;20031;-72
2023/02/17 00:36:06;;;;;;;18.42;7.97;;;10.10;99.90;;;;;;4970644;28;20023;-72
2023/02/17 00:38:32;;;;;;;19.02;7.32;;;10.00;99.90;;;;;;5005586;28;20088;-71
2023/02/17 00:40:57;;;;;;;15.68;7.38;;;10.10;99.90;;;;;;4981215;28;20031;-72
2023/02/17 00:43:23;;;;;;;17.48;7.75;;;10.00;99.90;;;;;;4972061;28;20046;-71
2023/02/17 00:45:48;;;;;;;18.00;7.93;;;10.00;99.90;;;;;;4976967;28;20054;-72
2023/02/17 00:48:14;;;;;;;19.45;8.40;;;10.00;99.90;;;;;;4971220;28;20046;-71
2023/02/17 00:50:40;;;;;;;22.15;8.80;;;10.00;99.90;;;;;;4974397;28;20038;-72
2023/02/17 00:53:05;;;;;;;18.67;8.35;;;10.00;99.90;;;;;;4973332;28;20038;-73
2023/02/17 00:55:31;;;;;;;25.35;7.50;;;10.00;99.90;;;;;;4982205;28;20118;-72
2023/02/17 00:57:56;;;;;;;23.42;8.00;;;9.90;99.90;;;;;;4970730;28;20652;-71
2023/02/17 01:00:22;;;;;;;21.83;7.78;;;9.90;99.90;;;;;;4980376;28;20062;-72
2023/02/17 01:02:48;;;;;;;19.08;7.53;;;9.90;99.90;;;;;;4988590;28;20506;-71
2023/02/17 01:05:13;;;;;;;26.40;9.05;;;9.90;99.90;;;;;;4982728;28;20042;-71
2023/02/17 01:07:40;;;;;;;20.45;8.10;;;9.80;99.90;;;;;;4973058;28;20034;-72
2023/02/17 01:10:07;;;;;;;19.90;7.53;;;9.80;99.90;;;;;;4973709;28;20086;-73
2023/02/17 01:12:32;;;;;;;18.63;7.47;;;9.70;99.90;;;;;;4970064;28;20085;-73
2023/02/17 01:14:58;;;;;;;22.30;8.20;;;9.70;99.90;;;;;;4979919;28;20042;-72
2023/02/17 01:17:24;;;;;;;24.95;7.38;;;9.70;99.90;;;;;;4983811;28;20049;-72
2023/02/17 01:19:49;;;;;;;19.35;7.43;;;9.70;99.90;;;;;;4984488;28;20042;-72
2023/02/17 01:22:15;;;;;;;23.40;8.50;;;9.70;99.90;;;;;;4982537;28;20125;-72
2023/02/17 01:24:41;;;;;;;27.83;9.10;;;9.70;99.90;;;;;;4978200;28;20081;-71
2023/02/17 01:27:06;;;;;;;25.17;8.75;;;9.70;99.90;;;;;;4976883;28;20063;-72
2023/02/17 01:29:35;;;;;;;25.38;8.63;;;9.70;99.90;;;;;;4984905;28;20025;-72
2023/02/17 01:32:00;;;;;;;31.45;9.25;;;9.70;99.90;;;;;;4977591;28;20039;-72
2023/02/17 01:34:26;;;;;;;24.73;8.02;;;9.60;99.90;;;;;;4975603;28;20038;-72
2023/02/17 01:36:52;;;;;;;31.85;8.15;;;9.60;99.90;;;;;;4983387;28;20487;-72
2023/02/17 01:39:20;;;;;;;26.48;7.38;;;9.60;99.90;;;;;;4970108;28;20043;-71
2023/02/17 01:41:46;;;;;;;22.05;7.72;;;9.60;99.90;;;;;;4969325;28;20043;-73
2023/02/17 01:44:18;;;;;;;23.55;7.47;;;9.60;99.90;;;;;;4974386;28;20039;-72
2023/02/17 01:46:46;;;;;;;24.15;7.78;;;9.60;99.90;;;;;;4971444;28;20038;-72
2023/02/17 01:49:30;;;;;;;24.88;8.32;;;9.50;99.90;;;;;;4971218;28;20073;-72
2023/02/17 01:52:03;;;;;;;25.35;7.68;;;9.60;99.90;;;;;;4968127;28;20031;-72
2023/02/17 01:54:35;;;;;;;27.52;8.32;;;9.50;99.90;;;;;;4983911;28;20037;-72
2023/02/17 01:57:01;;;;;;;27.75;8.90;;;9.50;99.90;;;;;;4977742;28;20022;-72
2023/02/17 01:59:28;;;;;;;24.02;8.50;;;9.50;99.90;;;;;;4967306;28;20134;-72
2023/02/17 02:01:57;;;;;;;23.13;7.60;;;9.50;99.90;;;;;;4969536;28;20026;-72
2023/02/17 02:04:28;;;;;;;27.52;9.60;;;9.50;99.90;;;;;;4968827;28;20163;-72
2023/02/17 02:06:53;;;;;;;21.17;8.20;;;9.50;99.90;;;;;;4977378;28;20125;-71
2023/02/17 02:09:47;;;;;;;24.95;8.05;;;9.50;99.90;;;;;;4974350;28;20117;-73
2023/02/17 02:12:26;;;;;;;25.45;8.73;;;9.50;99.90;;;;;;4963451;28;20034;-72
2023/02/17 02:14:54;;;;;;;18.48;7.85;;;9.40;99.90;;;;;;4974333;28;20511;-72
2023/02/17 02:17:32;;;;;;;21.48;8.07;;;9.40;99.90;;;;;;5014728;28;20054;-73
2023/02/17 02:20:21;;;;;;;27.17;9.30;;;9.40;99.90;;;;;;4979037;28;20065;-72
2023/02/17 02:22:53;;;;;;;29.10;8.35;;;9.40;99.90;;;;;;4981799;28;20062;-72
2023/02/17 02:25:32;;;;;;;23.55;7.88;;;9.40;99.90;;;;;;4969820;28;20044;-71
2023/02/17 02:28:16;;;;;;;21.38;6.78;;;9.40;99.90;;;;;;4979142;28;20091;-72
2023/02/17 02:31:02;;;;;;;23.70;8.02;;;9.40;99.90;;;;;;4976696;28;20077;-71
2023/02/17 02:33:33;;;;;;;22.58;8.13;;;9.40;99.90;;;;;;4964847;28;20113;-72
2023/02/17 02:36:03;;;;;;;19.27;6.68;;;9.40;99.90;;;;;;4979735;28;20036;-72
2023/02/17 02:38:35;;;;;;;20.30;5.90;;;9.40;99.90;;;;;;4986296;28;20554;-72
2023/02/17 02:41:12;;;;;;;17.55;7.05;;;9.40;99.90;;;;;;4987893;28;20046;-72
2023/02/17 02:43:38;;;;;;;17.85;6.65;;;9.40;99.90;;;;;;4986827;28;20391;-72
2023/02/17 02:46:04;;;;;;;19.65;6.75;;;9.40;99.90;;;;;;4981979;28;20035;-71
2023/02/17 02:48:30;;;;;;;17.17;6.22;;;9.40;99.90;;;;;;4978266;28;20886;-72
2023/02/17 02:51:11;;;;;;;16.42;5.75;;;9.40;99.90;;;;;;4981215;28;20034;-71
2023/02/17 02:53:54;;;;;;;19.50;6.18;;;9.40;99.90;;;;;;5007855;28;20461;-72
2023/02/17 02:56:59;;;;;;;19.98;6.93;;;9.40;99.90;;;;;;4972400;28;20070;-72
2023/02/17 02:59:55;;;;;;;16.35;5.90;;;9.40;99.90;;;;;;5001537;28;20047;-72
2023/02/17 03:02:23;;;;;;;21.10;6.68;;;9.40;99.90;;;;;;4981688;28;20054;-72
2023/02/17 03:04:58;;;;;;;18.60;7.03;;;9.40;99.90;;;;;;4995716;28;20034;-72
2023/02/17 03:07:29;;;;;;;18.40;6.63;;;9.40;99.90;;;;;;5002367;28;20574;-72
2023/02/17 03:09:57;;;;;;;24.92;6.35;;;9.40;99.90;;;;;;4971557;28;20030;-72
2023/02/17 03:12:24;;;;;;;14.15;5.43;;;9.40;99.90;;;;;;4977608;28;20039;-72
2023/02/17 03:14:54;;;;;;;18.42;6.00;;;9.40;99.90;;;;;;4982648;28;20046;-70
2023/02/17 03:17:20;;;;;;;14.82;5.07;;;9.40;99.90;;;;;;4974017;28;20119;-72
2023/02/17 03:19:46;;;;;;;15.00;4.78;;;9.40;99.90;;;;;;4973002;28;20051;-72
2023/02/17 03:22:26;;;;;;;14.07;5.57;;;9.40;99.90;;;;;;4979989;28;20042;-72
2023/02/17 03:24:52;;;;;;;14.43;5.27;;;9.50;99.90;;;;;;4977196;28;20046;-72
2023/02/17 03:27:17;;;;;;;16.35;5.63;;;9.50;99.90;;;;;;4984383;28;20561;-71
2023/02/17 03:29:43;;;;;;;18.90;6.32;;;9.50;99.90;;;;;;4979331;28;20505;-71
2023/02/17 03:32:08;;;;;;;17.27;5.30;;;9.50;99.90;;;;;;4977509;28;20038;-72
2023/02/17 03:34:34;;;;;;;16.65;5.15;;;9.50;99.90;;;;;;4978969;28;20376;-72
2023/02/17 03:37:00;;;;;;;12.45;5.10;;;9.50;99.90;;;;;;4973168;28;20038;-72
2023/02/17 03:39:26;;;;;;;16.98;6.30;;;9.50;99.90;;;;;;4971420;28;20041;-72
2023/02/17 03:41:52;;;;;;;21.65;7.40;;;9.50;99.90;;;;;;4981792;28;20038;-71
2023/02/17 03:44:18;;;;;;;18.95;6.07;;;9.50;99.90;;;;;;4984306;28;20034;-72
2023/02/17 03:46:45;;;;;;;17.90;7.35;;;9.50;99.90;;;;;;4972336;28;20548;-72
2023/02/17 03:49:10;;;;;;;21.15;8.00;;;9.60;99.90;;;;;;4983025;28;20033;-72
2023/02/17 03:51:36;;;;;;;19.55;8.48;;;9.60;99.90;;;;;;4987743;28;20031;-72
2023/02/17 03:54:01;;;;;;;29.17;9.88;;;9.60;99.90;;;;;;4983686;28;20098;-71
2023/02/17 03:56:27;;;;;;;26.42;9.10;;;9.60;99.90;;;;;;4980298;28;20034;-72
2023/02/17 03:58:53;;;;;;;25.33;8.93;;;9.60;99.90;;;;;;4981171;28;20035;-72
2023/02/17 04:01:18;;;;;;;26.77;9.73;;;9.60;99.90;;;;;;4983810;28;20018;-72
2023/02/17 04:03:44;;;;;;;24.73;9.07;;;9.60;99.90;;;;;;4989317;28;20053;-71
2023/02/17 04:06:10;;;;;;;33.13;11.13;;;9.70;99.90;;;;;;4972435;28;20101;-71
2023/02/17 04:08:36;;;;;;;24.70;9.75;;;9.60;99.90;;;;;;4977847;28;20035;-71
2023/02/17 04:11:03;;;;;;;26.95;11.15;;;9.70;99.90;;;;;;4981115;28;20035;-72
2023/02/17 04:13:29;;;;;;;33.10;11.38;;;9.70;99.90;;;;;;4976373;28;20030;-72
2023/02/17 04:15:55;;;;;;;31.23;11.23;;;9.70;99.90;;;;;;4972143;28;20030;-72
2023/02/17 04:18:21;;;;;;;25.90;11.13;;;9.70;99.90;;;;;;5013695;28;20053;-73
2023/02/17 04:20:48;;;;;;;29.67;11.35;;;9.70;99.90;;;;;;4982264;28;20097;-72
2023/02/17 04:23:14;;;;;;;26.02;10.85;;;9.70;99.90;;;;;;4972647;28;20043;-72
2023/02/17 04:25:40;;;;;;;26.15;9.82;;;9.70;99.90;;;;;;4979999;28;20035;-72
2023/02/17 04:28:06;;;;;;;23.13;9.18;;;9.70;99.90;;;;;;4979655;28;20030;-73
2023/02/17 04:30:32;;;;;;;21.27;8.73;;;9.70;99.90;;;;;;4967694;28;20030;-72
2023/02/17 04:32:58;;;;;;;25.13;9.63;;;9.70;99.90;;;;;;4985993;28;20074;-72
2023/02/17 04:35:23;;;;;;;23.48;9.18;;;9.70;99.90;;;;;;4981874;28;20153;-73
2023/02/17 04:37:49;;;;;;;19.75;8.30;;;9.70;99.90;;;;;;4987265;28;20506;-72
2023/02/17 04:40:16;;;;;;;26.15;8.20;;;9.80;99.90;;;;;;4986939;28;20113;-71
2023/02/17 04:42:41;;;;;;;25.17;8.52;;;9.70;99.90;;;;;;4987443;28;20045;-72
2023/02/17 04:45:08;;;;;;;17.52;7.55;;;9.80;99.90;;;;;;4978631;28;20387;-72
2023/02/17 04:47:34;;;;;;;23.63;7.57;;;9.80;99.90;;;;;;4975525;28;20042;-70
2023/02/17 04:49:59;;;;;;;21.83;8.30;;;9.80;99.90;;;;;;4978119;28;20125;-72
2023/02/17 04:52:25;;;;;;;24.20;7.32;;;9.70;99.90;;;;;;4983048;28;20542;-72
2023/02/17 04:54:50;;;;;;;20.02;8.35;;;9.80;99.90;;;;;;4974570;28;20057;-72
2023/02/17 04:57:16;;;;;;;22.70;7.50;;;9.80;99.90;;;;;;4985018;28;20050;-74
2023/02/17 04:59:42;;;;;;;26.77;8.80;;;9.80;99.90;;;;;;4969352;28;20042;-72
2023/02/17 05:02:07;;;;;;;20.63;7.82;;;9.80;99.90;;;;;;4979905;28;20065;-73
2023/02/17 05:04:33;;;;;;;26.38;8.55;;;9.90;99.90;;;;;;4980938;28;20034;-72
2023/02/17 05:06:59;;;;;;;26.40;9.13;;;9.90;99.90;;;;;;4976946;28;20047;-71
2023/02/17 05:09:25;;;;;;;22.50;8.63;;;9.90;99.90;;;;;;4969640;28;20115;-72
2023/02/17 05:11:50;;;;;;;22.67;9.63;;;9.90;99.90;;;;;;4986527;28;20026;-72
2023/02/17 05:14:16;;;;;;;28.90;10.38;;;9.90;99.90;;;;;;4968738;28;20444;-72
2023/02/17 05:16:41;;;;;;;25.90;9.20;;;10.00;99.90;;;;;;4968257;28;20082;-71
2023/02/17 05:19:07;;;;;;;22.45;8.40;;;10.00;99.90;;;;;;4976342;28;20145;-72
2023/02/17 05:21:33;;;;;;;22.60;9.00;;;10.00;99.90;;;;;;4973985;28;20035;-72
2023/02/17 05:23:58;;;;;;;27.17;9.98;;;10.00;99.90;;;;;;4976979;28;20506;-72
2023/02/17 05:26:25;;;;;;;27.30;10.15;;;10.00;99.90;;;;;;4969005;28;20443;-72
2023/02/17 05:28:51;;;;;;;31.50;9.70;;;10.00;99.90;;;;;;4977598;28;20049;-72
2023/02/17 05:31:17;;;;;;;33.97;11.77;;;10.00;99.90;;;;;;4969982;28;20035;-71
2023/02/17 05:33:42;;;;;;;27.98;9.90;;;10.00;99.90;;;;;;4968515;28;20039;-71
2023/02/17 05:36:09;;;;;;;29.23;10.15;;;10.00;99.90;;;;;;4977645;28;20031;-73
2023/02/17 05:38:41;;;;;;;29.45;11.43;;;10.00;99.90;;;;;;4981095;28;20063;-72
2023/02/17 05:41:07;;;;;;;27.67;10.30;;;10.00;99.90;;;;;;4987736;28;20034;-72
2023/02/17 05:43:32;;;;;;;28.13;10.25;;;10.10;99.90;;;;;;4987292;28;20200;-72
2023/02/17 05:46:02;;;;;;;34.25;9.90;;;10.10;99.90;;;;;;4983857;28;20038;-73
2023/02/17 05:48:28;;;;;;;29.13;9.90;;;10.10;99.90;;;;;;4968681;28;20031;-72
2023/02/17 05:50:53;;;;;;;27.80;11.00;;;10.20;99.90;;;;;;4986032;28;20031;-72
2023/02/17 05:53:19;;;;;;;29.83;10.05;;;10.20;99.90;;;;;;4974931;28;20026;-72
2023/02/17 05:55:44;;;;;;;28.27;10.45;;;10.10;99.90;;;;;;4980136;28;20066;-72
2023/02/17 05:58:10;;;;;;;25.80;11.02;;;10.10;99.90;;;;;;4977981;28;20031;-72
2023/02/17 06:00:36;;;;;;;28.45;9.55;;;10.10;99.90;;;;;;4983228;28;20511;-72
2023/02/17 06:03:01;;;;;;;29.00;10.63;;;10.10;99.90;;;;;;4988632;28;20030;-71
2023/02/17 06:05:27;;;;;;;28.98;9.60;;;10.10;99.90;;;;;;4978963;28;20050;-72
2023/02/17 06:07:52;;;;;;;21.92;8.90;;;10.20;99.90;;;;;;4975945;28;20026;-72
2023/02/17 06:10:18;;;;;;;26.25;8.50;;;10.20;99.90;;;;;;5011667;28;20130;-72
2023/02/17 06:12:43;;;;;;;26.95;9.60;;;10.20;99.90;;;;;;4970769;28;20391;-72
2023/02/17 06:15:09;;;;;;;29.80;9.75;;;10.20;99.90;;;;;;4986246;28;20030;-71
2023/02/17 06:17:35;;;;;;;25.30;8.98;;;10.20;99.90;;;;;;4980865;28;20101;-72
2023/02/17 06:20:01;;;;;;;26.67;10.25;;;10.10;99.90;;;;;;4976646;28;20043;-72
2023/02/17 06:22:26;;;;;;;23.63;9.43;;;10.20;99.90;;;;;;4971072;28;20041;-72
2023/02/17 06:24:52;;;;;;;23.85;8.73;;;10.20;99.90;;;;;;4972025;28;20073;-71
2023/02/17 06:27:17;;;;;;;28.25;9.30;;;10.10;99.90;;;;;;4977576;28;20458;-71
2023/02/17 06:29:43;;;;;;;26.88;9.23;;;10.20;99.90;;;;;;4970084;28;20049;-73
2023/02/17 06:32:09;;;;;;;22.85;7.70;;;10.20;99.90;;;;;;4980630;28;20794;-71
2023/02/17 06:34:34;;;;;;;26.48;9.07;;;10.20;99.90;;;;;;4979186;28;20058;-71
2023/02/17 06:37:00;;;;;;;25.45;9.15;;;10.20;99.90;;;;;;4971692;28;20050;-73
2023/02/17 06:39:25;;;;;;;22.10;7.72;;;10.20;99.90;;;;;;4998668;28;20046;-72
2023/02/17 06:41:51;;;;;;;22.70;7.55;;;10.30;99.90;;;;;;4971433;28;20403;-72
2023/02/17 06:44:16;;;;;;;25.13;8.65;;;10.30;99.90;;;;;;4999234;28;20031;-72
2023/02/17 06:46:44;;;;;;;28.17;8.90;;;10.20;99.90;;;;;;4966757;28;20042;-72
2023/02/17 06:49:10;;;;;;;26.73;8.43;;;10.20;99.90;;;;;;4967948;28;20125;-73
2023/02/17 06:51:36;;;;;;;28.25;8.07;;;10.20;99.90;;;;;;4967971;28;20118;-73
2023/02/17 06:54:01;;;;;;;20.70;8.00;;;10.30;99.90;;;;;;4968580;28;20539;-72
2023/02/17 06:56:27;;;;;;;22.55;8.10;;;10.30;99.90;;;;;;4970146;28;20121;-72
2023/02/17 06:58:53;;;;;;;25.13;8.32;;;10.30;99.90;;;;;;4966774;28;20573;-72
2023/02/17 07:01:21;;;;;;;18.58;8.10;;;10.30;99.90;;;;;;4968070;28;20081;-72
2023/02/17 07:03:47;;;;;;;20.30;7.22;;;10.30;99.90;;;;;;4966666;28;20026;-72
2023/02/17 07:06:13;;;;;;;23.88;7.47;;;10.40;99.90;;;;;;4969961;28;20039;-72
2023/02/17 07:08:39;;;;;;;20.20;7.13;;;10.40;99.90;;;;;;4966263;28;20034;-72
2023/02/17 07:11:06;;;;;;;20.42;7.78;;;10.40;99.90;;;;;;4968190;28;20058;-72
2023/02/17 07:13:32;;;;;;;21.75;7.45;;;10.40;99.90;;;;;;4967662;28;20030;-72
2023/02/17 07:15:58;;;;;;;12.40;5.97;;;10.40;99.90;;;;;;4966268;28;20554;-72
2023/02/17 07:18:23;;;;;;;16.75;7.20;;;10.40;99.90;;;;;;4971665;28;20113;-73
2023/02/17 07:20:49;;;;;;;20.40;6.53;;;10.40;99.90;;;;;;4968022;28;20046;-73
2023/02/17 07:23:15;;;;;;;20.88;6.70;;;10.40;99.90;;;;;;4966113;28;20088;-73
2023/02/17 07:25:40;;;;;;;18.10;6.38;;;10.50;99.90;;;;;;4969694;28;20038;-72
2023/02/17 07:28:06;;;;;;;14.95;6.40;;;10.50;99.90;;;;;;4974342;28;20038;-75
2023/02/17 07:30:35;;;;;;;16.38;6.70;;;10.50;99.90;;;;;;4972096;28;20042;-73
2023/02/17 07:33:01;;;;;;;16.30;6.50;;;10.50;99.90;;;;;;4971557;28;20043;-72
2023/02/17 07:35:26;;;;;;;18.95;5.40;;;10.50;99.90;;;;;;4969466;28;20070;-73
2023/02/17 07:37:52;;;;;;;16.73;6.15;;;10.50;99.90;;;;;;4969846;28;20495;-72
2023/02/17 07:40:18;;;;;;;15.20;5.82;;;10.60;99.90;;;;;;4970781;28;20042;-72
2023/02/17 07:42:43;;;;;;;14.70;5.85;;;10.70;99.90;;;;;;4972960;28;20046;-72
2023/02/17 07:45:09;;;;;;;10.88;5.20;;;10.70;99.90;;;;;;4970509;28;20042;-72
2023/02/17 07:47:34;;;;;;;14.43;5.93;;;10.70;99.90;;;;;;4970669;28;20096;-72
2023/02/17 07:50:00;;;;;;;12.75;4.80;;;10.70;99.90;;;;;;4982746;28;20168;-72
2023/02/17 07:52:25;;;;;;;13.15;6.38;;;10.70;99.90;;;;;;4972054;28;20708;-72
2023/02/17 07:54:51;;;;;;;14.25;5.35;;;10.80;99.90;;;;;;4969784;28;20038;-72
2023/02/17 07:57:17;;;;;;;13.65;5.15;;;10.80;99.90;;;;;;4970304;28;20026;-73
2023/02/17 07:59:42;;;;;;;12.95;5.25;;;10.80;99.90;;;;;;4967442;28;20039;-71
2023/02/17 08:02:10;;;;;;;14.48;5.88;;;10.80;99.90;;;;;;4972216;28;20066;-73
2023/02/17 08:04:36;;;;;;;13.27;5.55;;;10.90;99.90;;;;;;4966840;28;20153;-72
2023/02/17 08:07:02;;;;;;;12.80;5.13;;;10.90;99.90;;;;;;4972388;28;20527;-72
2023/02/17 08:15:01;;;;;;;13.75;6.03;;;10.90;99.90;;;;;;4988456;28;20518;-72
2023/02/17 08:17:27;;;;;;;11.73;6.47;;;10.90;99.90;;;;;;4990941;28;20039;-72
2023/02/17 08:19:53;;;;;;;13.35;5.88;;;10.80;99.90;;;;;;4972310;28;20042;-72
2023/02/17 08:22:19;;;;;;;13.82;5.50;;;10.90;99.90;;;;;;4988303;28;20581;-72
2023/02/17 08:24:45;;;;;;;12.35;5.72;;;10.90;99.90;;;;;;4968162;28;20034;-72
2023/02/17 08:27:12;;;;;;;16.85;5.35;;;10.80;99.90;;;;;;4988262;28;20058;-72
2023/02/17 08:29:37;;;;;;;14.35;6.13;;;10.90;99.90;;;;;;4985468;28;20034;-72
2023/02/17 08:32:03;;;;;;;13.27;5.45;;;10.90;99.90;;;;;;4987343;28;20053;-72
2023/02/17 08:34:32;;;;;;;11.18;5.65;;;10.80;99.90;;;;;;4985669;28;20081;-73
2023/02/17 08:36:58;;;;;;;13.35;5.78;;;10.80;99.90;;;;;;4985298;28;20053;-72
2023/02/17 08:39:25;;;;;;;14.15;5.20;;;10.80;99.90;;;;;;4967533;28;20038;-74
2023/02/17 08:41:50;;;;;;;15.88;6.47;;;10.80;99.90;;;;;;4986730;28;20035;-73
2023/02/17 08:44:17;;;;;;;18.25;7.03;;;10.90;99.90;;;;;;4985453;28;20038;-72
2023/02/17 08:46:47;;;;;;;16.05;7.53;;;10.90;99.90;;;;;;4986942;28;20487;-73
2023/02/17 08:49:13;;;;;;;12.85;6.07;;;10.90;99.90;;;;;;4984675;28;20644;-73
2023/02/17 08:51:39;;;;;;;13.63;6.53;;;10.90;99.90;;;;;;4985825;28;20049;-72
2023/02/17 08:54:06;;;;;;;13.38;6.25;;;10.90;99.90;;;;;;4985429;28;20080;-73
2023/02/17 08:56:33;;;;;;;12.75;6.10;;;10.90;99.90;;;;;;4985502;28;20096;-72
2023/02/17 08:58:59;;;;;;;13.70;6.15;;;10.90;99.90;;;;;;4986497;28;20038;-72
2023/02/17 09:01:25;;;;;;;12.82;6.07;;;11.00;99.90;;;;;;4983780;28;20038;-73
2023/02/17 09:03:54;;;;;;;12.65;7.13;;;11.00;99.90;;;;;;4986288;28;20070;-71
2023/02/17 09:06:20;;;;;;;13.43;6.10;;;11.10;99.90;;;;;;4985803;28;20030;-72
2023/02/17 09:08:46;;;;;;;15.75;6.55;;;11.10;99.90;;;;;;4967464;28;20026;-72
2023/02/17 09:11:15;;;;;;;12.88;6.13;;;11.10;99.90;;;;;;4985442;28;20042;-72
2023/02/17 09:13:44;;;;;;;13.75;7.00;;;11.10;99.90;;;;;;4985248;28;20166;-72
2023/02/17 09:16:10;;;;;;;13.52;6.28;;;11.20;99.90;;;;;;4983569;28;20046;-72
2023/02/17 09:18:35;;;;;;;11.65;5.65;;;11.20;99.90;;;;;;4985426;28;20031;-73
2023/02/17 09:21:10;;;;;;;11.32;5.93;;;11.30;99.90;;;;;;4967455;28;20049;-72
2023/02/17 09:23:36;;;;;;;11.13;5.32;;;11.30;99.90;;;;;;4984289;28;20050;-73
2023/02/17 09:26:04;;;;;;;13.43;6.10;;;11.40;99.90;;;;;;4987091;28;20033;-73
2023/02/17 09:28:30;;;;;;;11.75;5.53;;;11.40;99.90;;;;;;4984228;28;20034;-72
2023/02/17 09:30:56;;;;;;;11.32;6.43;;;11.40;99.90;;;;;;4984868;28;20046;-72
2023/02/17 09:33:21;;;;;;;14.57;6.32;;;11.40;99.90;;;;;;4986345;28;20038;-72
2023/02/17 09:35:48;;;;;;;14.25;5.72;;;11.50;99.90;;;;;;4986705;28;20121;-73
2023/02/17 09:38:14;;;;;;;10.23;4.22;;;11.40;99.90;;;;;;4987335;28;20031;-72
2023/02/17 09:40:47;;;;;;;12.75;4.88;;;11.50;99.90;;;;;;4987131;28;20522;-72
2023/02/17 09:43:17;;;;;;;13.77;5.57;;;11.50;99.90;;;;;;4987610;28;20074;-73
2023/02/17 09:45:49;;;;;;;11.90;5.03;;;11.60;99.90;;;;;;4986997;28;20113;-72
2023/02/17 09:48:19;;;;;;;11.15;5.15;;;11.60;99.90;;;;;;4988256;28;20042;-73
2023/02/17 09:51:08;;;;;;;10.88;4.25;;;11.50;99.90;;;;;;4991914;28;20065;-72
2023/02/17 09:53:50;;;;;;;13.10;4.65;;;11.50;99.90;;;;;;4964407;28;20041;-72
2023/02/17 09:56:24;;;;;;;12.02;4.35;;;11.50;99.90;;;;;;4985611;28;20038;-72
2023/02/17 09:58:54;;;;;;;11.55;4.45;;;11.70;99.90;;;;;;4975746;28;20038;-72
2023/02/17 10:01:24;;;;;;;8.07;3.23;;;11.80;99.90;;;;;;4977849;28;20133;-72
2023/02/17 10:04:09;;;;;;;7.97;3.80;;;11.90;99.90;;;;;;4968171;28;20506;-72
2023/02/17 10:06:38;;;;;;;11.07;3.53;;;11.80;99.90;;;;;;4964729;28;20034;-72
2023/02/17 10:09:45;;;;;;;11.10;3.40;;;11.80;99.90;;;;;;4969812;28;20054;-72
2023/02/17 10:12:24;;;;;;;7.30;3.22;;;11.80;99.90;;;;;;4965528;28;20615;-72
2023/02/17 10:15:13;;;;;;;8.30;3.03;;;11.80;99.90;;;;;;4969009;28;20035;-72
2023/02/17 10:18:07;;;;;;;10.43;3.28;;;11.70;99.90;;;;;;4964345;28;20039;-71
2023/02/17 10:20:49;;;;;;;6.90;3.60;;;11.70;99.90;;;;;;4962840;28;20070;-72
2023/02/17 10:23:22;;;;;;;9.30;3.20;;;11.70;99.90;;;;;;4967520;28;20030;-73
2023/02/17 10:26:06;;;;;;;6.35;2.78;;;11.70;99.90;;;;;;4968227;28;20141;-72
2023/02/17 10:28:52;;;;;;;9.32;2.92;;;11.80;99.90;;;;;;4967428;28;20102;-72
2023/02/17 10:31:42;;;;;;;7.97;3.67;;;11.80;99.90;;;;;;4982000;28;20047;-73
2023/02/17 10:34:30;;;;;;;7.70;3.60;;;11.90;99.90;;;;;;4963553;28;20499;-74
2023/02/17 10:37:11;;;;;;;8.52;3.67;;;11.90;99.90;;;;;;4987444;28;20038;-73
2023/02/17 10:39:55;;;;;;;6.35;3.28;;;12.00;99.90;;;;;;4949718;28;20476;-72
2023/02/17 10:42:33;;;;;;;9.63;3.80;;;12.10;99.90;;;;;;4967557;28;20047;-72
2023/02/17 10:45:01;;;;;;;8.27;3.90;;;12.10;99.90;;;;;;4968964;28;20038;-71
2023/02/17 10:47:27;;;;;;;11.90;4.82;;;12.10;99.90;;;;;;4989652;28;20082;-72
2023/02/17 10:49:55;;;;;;;6.95;3.10;;;12.10;99.90;;;;;;4969428;28;20039;-72
2023/02/17 10:52:35;;;;;;;9.73;3.60;;;12.10;99.90;;;;;;4990107;28;20042;-72
2023/02/17 10:55:32;;;;;;;12.55;3.63;;;12.00;99.90;;;;;;4983787;28;20030;-72
2023/02/17 10:58:17;;;;;;;8.40;3.30;;;12.00;99.90;;;;;;5004207;28;20049;-72
2023/02/17 11:00:48;;;;;;;8.40;3.60;;;12.10;99.90;;;;;;4964455;28;20042;-71
2023/02/17 11:03:23;;;;;;;12.73;4.90;;;12.10;99.90;;;;;;4971297;28;20039;-72
2023/02/17 11:05:57;;;;;;;9.75;3.28;;;12.10;99.90;;;;;;4971613;28;20039;-72
2023/02/17 11:08:43;;;;;;;8.75;2.72;;;12.10;99.90;;;;;;4974274;28;20499;-71
2023/02/17 11:11:20;;;;;;;6.30;3.47;;;12.10;99.90;;;;;;4968859;28;20054;-72
2023/02/17 11:14:00;;;;;;;13.60;3.85;;;12.20;99.90;;;;;;4970119;28;20039;-72
2023/02/17 11:16:28;;;;;;;8.38;3.97;;;12.20;99.90;;;;;;4969700;28;20043;-73
2023/02/17 11:18:55;;;;;;;12.38;4.68;;;12.00;99.90;;;;;;4971635;28;20053;-72
2023/02/17 11:21:21;;;;;;;8.48;3.58;;;12.00;99.90;;;;;;4970053;28;20030;-73
2023/02/17 11:23:50;;;;;;;12.88;4.85;;;12.00;99.90;;;;;;4972645;28;20027;-72
2023/02/17 11:26:25;;;;;;;11.65;4.32;;;12.00;99.90;;;;;;4971329;28;20557;-72
2023/02/17 11:28:51;;;;;;;10.07;4.20;;;12.00;99.90;;;;;;4971164;28;20034;-72
2023/02/17 11:31:29;;;;;;;8.00;3.85;;;12.00;99.90;;;;;;4968217;28;20041;-73
2023/02/17 11:33:55;;;;;;;12.02;4.05;;;12.00;99.90;;;;;;4981637;28;20043;-71
2023/02/17 11:36:29;;;;;;;10.27;4.18;;;12.00;99.90;;;;;;4968448;28;20446;-72
2023/02/17 11:38:56;;;;;;;12.95;3.83;;;12.00;99.90;;;;;;4984763;28;20070;-72
2023/02/17 11:41:23;;;;;;;11.18;3.78;;;11.90;99.90;;;;;;4969666;28;20027;-72
2023/02/17 11:43:58;;;;;;;10.05;3.60;;;11.90;99.90;;;;;;4998242;28;20624;-72
2023/02/17 11:46:33;;;;;;;12.48;4.32;;;11.80;99.90;;;;;;4968285;28;20031;-72
2023/02/17 11:49:42;;;;;;;8.05;3.38;;;11.70;99.90;;;;;;4998027;28;20038;-71
2023/02/17 11:52:57;;;;;;;14.85;3.53;;;11.80;99.90;;;;;;4965293;28;20964;-73
2023/02/17 11:55:44;;;;;;;13.32;4.20;;;11.70;99.90;;;;;;4901707;28;20055;-71
2023/02/17 11:58:57;;;;;;;8.50;3.70;;;11.70;99.90;;;;;;4967561;28;20038;-71
2023/02/17 12:01:55;;;;;;;10.00;3.45;;;11.80;99.90;;;;;;4961531;28;20050;-72
2023/02/17 12:04:29;;;;;;;9.60;4.10;;;11.70;99.90;;;;;;4970707;28;20042;-71
2023/02/17 12:07:47;;;;;;;9.85;3.72;;;11.80;99.90;;;;;;4969705;28;20143;-72
2023/02/17 12:10:31;;;;;;;9.35;3.33;;;11.70;99.90;;;;;;4968003;28;20108;-72
2023/02/17 12:13:19;;;;;;;12.68;2.90;;;11.70;99.90;;;;;;4966691;28;20039;-73
2023/02/17 12:16:03;;;;;;;15.75;3.85;;;11.70;99.90;;;;;;4969797;28;20038;-73
2023/02/17 12:18:43;;;;;;;10.27;2.88;;;11.60;99.90;;;;;;4969639;28;20082;-73
2023/02/17 12:21:34;;;;;;;10.40;2.50;;;11.60;99.90;;;;;;4967773;28;20455;-72
2023/02/17 12:24:11;;;;;;;8.55;2.60;;;11.60;99.90;;;;;;4962093;28;20038;-73
2023/02/17 12:26:48;;;;;;;8.25;1.88;;;11.70;99.90;;;;;;4989661;28;20125;-73
2023/02/17 12:29:22;;;;;;;5.65;2.03;;;11.70;99.90;;;;;;4988150;28;20037;-73
2023/02/17 12:32:32;;;;;;;13.23;3.08;;;11.70;99.90;;;;;;5007869;28;20049;-72
2023/02/17 12:35:16;;;;;;;10.75;2.20;;;11.70;99.90;;;;;;4962297;28;20498;-73
2023/02/17 12:38:07;;;;;;;10.45;2.00;;;11.60;99.90;;;;;;4970316;28;20033;-72
2023/02/17 12:40:37;;;;;;;7.45;2.75;;;11.60;99.90;;;;;;4988477;28;20042;-72
2023/02/17 12:43:26;;;;;;;6.43;2.50;;;11.60;99.90;;;;;;4988542;28;20402;-72
2023/02/17 12:45:55;;;;;;;10.63;2.33;;;11.50;99.90;;;;;;4995056;28;20068;-73
2023/02/17 12:48:24;;;;;;;8.52;1.55;;;11.60;99.90;;;;;;4978900;28;20116;-73
2023/02/17 12:50:50;;;;;;;10.38;2.15;;;11.60;99.90;;;;;;4984333;28;20112;-72
2023/02/17 12:53:25;;;;;;;7.20;2.38;;;11.70;99.90;;;;;;4980952;28;20042;-73
2023/02/17 12:55:58;;;;;;;8.55;1.95;;;11.70;99.90;;;;;;4965540;28;20035;-73
2023/02/17 12:58:30;;;;;;;7.18;2.17;;;11.70;99.90;;;;;;4979370;28;20125;-73
2023/02/17 13:01:13;;;;;;;11.38;2.58;;;11.80;99.90;;;;;;4991109;28;20733;-73
2023/02/17 13:03:39;;;;;;;7.55;2.13;;;11.90;99.90;;;;;;4991486;28;20057;-74